sensor_id;sensor_type;location;lat;lon;timestamp;pressure;altitude;pressure_sealevel;temperature;humidity
84647;BME280;74876;52.404;16.896;2024-01-27T00:00:09;100964.0;;;5.33;70.33
84647;BME280;74876;52.404;16.896;2024-01-27T00:15:09;100992.0;;;5.29;70.42
84647;BME280;74876;52.404;16.896;2024-01-27T00:30:09;101009.0;;;5.29;70.33
84647;BME280;74876;52.404;16.896;2024-01-27T00:45:09;101020.0;;;5.22;70.05
84647;BME280;74876;52.404;16.896;2024-01-27T01:00:09;101058.0;;;5.14;70.27
84647;BME280;74876;52.404;16.896;2024-01-27T01:15:09;101056.0;;;5.12;69.8
84647;BME280;74876;52.404;16.896;2024-01-27T01:30:09;101055.0;;;5.07;69.51
84647;BME280;74876;52.404;16.896;2024-01-27T01:45:09;101072.0;;;5.03;69.47
84647;BME280;74876;52.404;16.896;2024-01-27T02:00:10;101072.0;;;5.01;69.01
84647;BME280;74876;52.404;16.896;2024-01-27T02:15:09;101063.0;;;4.99;68.66
84647;BME280;74876;52.404;16.896;2024-01-27T02:30:10;101067.0;;;4.97;68.61
84647;BME280;74876;52.404;16.896;2024-01-27T02:45:10;101072.0;;;4.96;68.53
84647;BME280;74876;52.404;16.896;2024-01-27T03:00:09;101082.0;;;4.93;68.82
84647;BME280;74876;52.404;16.896;2024-01-27T03:15:10;101078.0;;;4.9;68.64
84647;BME280;74876;52.404;16.896;2024-01-27T03:30:09;101069.0;;;4.86;69.01
84647;BME280;74876;52.404;16.896;2024-01-27T03:45:09;101088.0;;;4.82;69.26
84647;BME280;74876;52.404;16.896;2024-01-27T04:00:09;101084.0;;;4.77;69.94
84647;BME280;74876;52.404;16.896;2024-01-27T04:15:09;101101.0;;;4.71;70.11
84647;BME280;74876;52.404;16.896;2024-01-27T04:35:09;101116.0;;;4.65;70.45
84647;BME280;74876;52.404;16.896;2024-01-27T04:50:09;101115.0;;;4.5;70.96
84647;BME280;74876;52.404;16.896;2024-01-27T05:05:09;101121.0;;;4.5;71.12
84647;BME280;74876;52.404;16.896;2024-01-27T05:20:09;101106.0;;;4.5;71.13
84647;BME280;74876;52.404;16.896;2024-01-27T05:35:09;101128.0;;;4.48;71.4
84647;BME280;74876;52.404;16.896;2024-01-27T05:50:09;101145.0;;;4.43;71.73
84647;BME280;74876;52.404;16.896;2024-01-27T06:05:09;101163.0;;;4.44;71.96
84647;BME280;74876;52.404;16.896;2024-01-27T06:20:10;101183.0;;;4.43;72.57
84647;BME280;74876;52.404;16.896;2024-01-27T06:35:10;101203.0;;;4.37;73.62
84647;BME280;74876;52.404;16.896;2024-01-27T06:50:10;101211.0;;;4.41;73.74
84647;BME280;74876;52.404;16.896;2024-01-27T07:05:09;101231.0;;;4.54;73.33
84647;BME280;74876;52.404;16.896;2024-01-27T07:20:10;101240.0;;;4.68;72.63
84647;BME280;74876;52.404;16.896;2024-01-27T07:35:10;101269.0;;;4.79;72.1
84647;BME280;74876;52.404;16.896;2024-01-27T07:50:09;101277.0;;;4.85;72.02
84647;BME280;74876;52.404;16.896;2024-01-27T08:05:10;101292.0;;;4.94;72.14
84647;BME280;74876;52.404;16.896;2024-01-27T08:30:10;101316.0;;;4.97;72.45
84647;BME280;74876;52.404;16.896;2024-01-27T08:45:10;101375.0;;;5.11;72.27
84647;BME280;74876;52.404;16.896;2024-01-27T09:00:09;101380.0;;;5.12;72.36
84647;BME280;74876;52.404;16.896;2024-01-27T09:15:10;101425.0;;;5.22;72.33
84647;BME280;74876;52.404;16.896;2024-01-27T09:30:09;101455.0;;;5.31;72.24
84647;BME280;74876;52.404;16.896;2024-01-27T09:45:09;101486.0;;;5.34;71.4
84647;BME280;74876;52.404;16.896;2024-01-27T10:00:09;101514.0;;;5.49;70.49
84647;BME280;74876;52.404;16.896;2024-01-27T10:15:09;101539.0;;;5.66;69.5
84647;BME280;74876;52.404;16.896;2024-01-27T10:30:09;101556.0;;;5.95;68.73
84647;BME280;74876;52.404;16.896;2024-01-27T10:45:09;101566.0;;;6.03;68.25
84647;BME280;74876;52.404;16.896;2024-01-27T11:00:09;101583.0;;;6.04;67.85
84647;BME280;74876;52.404;16.896;2024-01-27T11:15:09;101616.0;;;6.49;66.36
84647;BME280;74876;52.404;16.896;2024-01-27T11:30:09;101618.0;;;6.96;65.07
84647;BME280;74876;52.404;16.896;2024-01-27T11:45:09;101654.0;;;7.27;64.15
84647;BME280;74876;52.404;16.896;2024-01-27T12:00:09;101671.0;;;7.91;61.65
84647;BME280;74876;52.404;16.896;2024-01-27T12:15:09;101707.0;;;8.54;59.86
84647;BME280;74876;52.404;16.896;2024-01-27T12:35:10;101726.0;;;9.33;56.91
84647;BME280;74876;52.404;16.896;2024-01-27T12:50:10;101738.0;;;9.85;56.15
84647;BME280;74876;52.404;16.896;2024-01-27T13:05:10;101766.0;;;9.24;57.45
84647;BME280;74876;52.404;16.896;2024-01-27T13:20:10;101796.0;;;9.57;56.56
84647;BME280;74876;52.404;16.896;2024-01-27T13:35:10;101823.0;;;8.41;59.71
84647;BME280;74876;52.404;16.896;2024-01-27T13:50:09;101847.0;;;8.98;57.66
84647;BME280;74876;52.404;16.896;2024-01-27T14:05:09;101874.0;;;8.62;59.72
84647;BME280;74876;52.404;16.896;2024-01-27T14:20:09;101905.0;;;9.03;58.52
84647;BME280;74876;52.404;16.896;2024-01-27T14:35:09;101921.0;;;9.05;58.15
84647;BME280;74876;52.404;16.896;2024-01-27T14:50:09;101950.0;;;7.59;62.53
84647;BME280;74876;52.404;16.896;2024-01-27T15:05:09;101963.0;;;6.7;66.73
84647;BME280;74876;52.404;16.896;2024-01-27T15:20:09;101972.0;;;6.06;69.3
84647;BME280;74876;52.404;16.896;2024-01-27T15:35:09;101984.0;;;5.74;69.79
84647;BME280;74876;52.404;16.896;2024-01-27T15:50:09;102011.0;;;5.53;70.72
84647;BME280;74876;52.404;16.896;2024-01-27T16:05:09;102036.0;;;5.34;71.35
84647;BME280;74876;52.404;16.896;2024-01-27T16:20:09;102071.0;;;5.18;73.21
84647;BME280;74876;52.404;16.896;2024-01-27T16:35:09;102087.0;;;5.04;75.05
84647;BME280;74876;52.404;16.896;2024-01-27T16:50:09;102088.0;;;4.91;76.94
84647;BME280;74876;52.404;16.896;2024-01-27T17:05:09;102112.0;;;5.06;78.1
84647;BME280;74876;52.404;16.896;2024-01-27T17:20:09;102125.0;;;5.29;78.42
84647;BME280;74876;52.404;16.896;2024-01-27T17:35:09;102120.0;;;5.37;78.2
84647;BME280;74876;52.404;16.896;2024-01-27T17:50:09;102133.0;;;5.44;77.36
84647;BME280;74876;52.404;16.896;2024-01-27T18:05:09;102155.0;;;5.5;78.07
84647;BME280;74876;52.404;16.896;2024-01-27T18:20:09;102165.0;;;5.54;78.63
84647;BME280;74876;52.404;16.896;2024-01-27T18:35:09;102170.0;;;5.57;79.3
84647;BME280;74876;52.404;16.896;2024-01-27T18:50:09;102201.0;;;5.61;80.42
84647;BME280;74876;52.404;16.896;2024-01-27T19:05:09;102214.0;;;5.65;80.45
84647;BME280;74876;52.404;16.896;2024-01-27T19:20:09;102219.0;;;5.71;80.37
84647;BME280;74876;52.404;16.896;2024-01-27T19:35:10;102231.0;;;5.63;80.61
84647;BME280;74876;52.404;16.896;2024-01-27T19:50:09;102243.0;;;5.64;80.15
84647;BME280;74876;52.404;16.896;2024-01-27T20:05:10;102264.0;;;5.7;79.53
84647;BME280;74876;52.404;16.896;2024-01-27T20:20:10;102287.0;;;5.76;78.96
84647;BME280;74876;52.404;16.896;2024-01-27T20:35:10;102314.0;;;5.8;78.39
84647;BME280;74876;52.404;16.896;2024-01-27T20:55:09;102322.0;;;5.9;77.64
84647;BME280;74876;52.404;16.896;2024-01-27T21:10:09;102344.0;;;5.88;77.82
84647;BME280;74876;52.404;16.896;2024-01-27T21:25:09;102346.0;;;5.9;77.41
84647;BME280;74876;52.404;16.896;2024-01-27T21:50:09;102377.0;;;5.88;77.46
84647;BME280;74876;52.404;16.896;2024-01-27T22:05:09;102400.0;;;5.74;78.79
84647;BME280;74876;52.404;16.896;2024-01-27T22:20:09;102400.0;;;5.57;79.73
84647;BME280;74876;52.404;16.896;2024-01-27T22:35:09;102408.0;;;5.51;79.95
84647;BME280;74876;52.404;16.896;2024-01-27T22:50:09;102431.0;;;5.46;80.08
84647;BME280;74876;52.404;16.896;2024-01-27T23:05:09;102445.0;;;5.46;80.02
84647;BME280;74876;52.404;16.896;2024-01-27T23:25:10;102457.0;;;5.42;80.71
84647;BME280;74876;52.404;16.896;2024-01-27T23:40:09;102459.99999999999;;;5.34;81.1
84647;BME280;74876;52.404;16.896;2024-01-27T23:55:09;102459.99999999999;;;5.26;81.44
